Time;durP1;ratioP1;P1;durP2;ratioP2;P2;SDS_P1;SDS_P2;PMS_P1;PMS_P2;Temp;Humidity;BMP_temperature;BMP_pressure;BME280_temperature;BME280_humidity;BME280_pressure;Samples;Min_cycle;Max_cycle;Signal;HPM_P1;HPM_P2
2022/09/25 00:00:02;;;;;;;;;;;;;;;;;;350126;28;863;-63
2022/09/25 00:00:13;;;;;;;;;;;;;;;;;;350186;28;805;-64
2022/09/25 00:00:23;;;;;;;;;;;;;;;;;;350138;28;943;-63
2022/09/25 00:00:33;;;;;;;;;;;;;;;;;;350183;28;955;-63
2022/09/25 00:00:43;;;;;;;;;;;;;;;;;;350095;28;1027;-63
2022/09/25 00:00:55;;;;;;;;;;;;;;;;;;350208;28;900;-63
2022/09/25 00:01:05;;;;;;;;;;;;;;;;;;350156;28;924;-63
2022/09/25 00:01:16;;;;;;;;;;;;;;;;;;350043;28;994;-63
2022/09/25 00:01:26;;;;;;;;;;;;;;;;;;350067;28;963;-63
2022/09/25 00:01:36;;;;;;;;;;;;;;;;;;350160;28;948;-63
2022/09/25 00:01:47;;;;;;;;;;;;;;;;;;350168;28;967;-63
2022/09/25 00:01:57;;;;;;;;;;;;;;;;;;350102;28;970;-64
2022/09/25 00:02:07;;;;;;;;;;;;;;;;;;348950;28;2001;-64
2022/09/25 00:02:17;;;;;;;;;;;;;;;;;;350166;28;971;-63
2022/09/25 00:02:27;;;;;;;;;;;;;;;;;;349310;28;1398;-63
2022/09/25 00:02:38;;;;;;;;;;;;;;;;;;349734;28;1503;-63
2022/09/25 00:02:48;;;;;;;;;;;;;;;;;;350129;28;995;-63
2022/09/25 00:02:58;;;;;;;;;;;;;;;;;;350173;28;978;-63
2022/09/25 00:03:09;;;;;;;;;;;;;;;;;;350171;28;936;-63
2022/09/25 00:03:21;;;;;;;;;;;;;;;;;;350075;28;1702;-64
2022/09/25 00:03:32;;;;;;;;;;;;;;;;;;350175;28;844;-63
2022/09/25 00:03:42;;;;;;;;;;;;;;;;;;350173;28;967;-63
2022/09/25 00:03:53;;;;;;;;;;;;;;;;;;350141;28;1038;-63
2022/09/25 00:04:03;;;;;;;;;;;;;;;;;;350109;28;992;-63
2022/09/25 00:04:13;;;;;;;;;;;;;;;;;;350153;28;915;-64
2022/09/25 00:04:23;;;;;;;;;;;;;;;;;;350126;28;908;-63
2022/09/25 00:04:34;;;;;;;;;;;;;;;;;;348591;28;1344;-63
2022/09/25 00:04:44;;;;;;;;;;;;;;;;;;348747;28;857;-64
2022/09/25 00:04:54;;;;;;;;;;;;;;;;;;348739;28;959;-63
2022/09/25 00:05:04;;;;;;;;;;;;;;;;;;348780;28;939;-63
2022/09/25 00:05:15;;;;;;;;;;;;;;;;;;348748;28;999;-63
2022/09/25 00:05:25;;;;;;;;;;;;;;;;;;348616;28;1057;-64
2022/09/25 00:05:36;;;;;;;;;;;;;;;;;;348772;28;920;-63
2022/09/25 00:05:46;;;;;;;;;;;;;;;;;;348770;28;1042;-63
2022/09/25 00:06:04;;;;;;;;;;;;;;;;;;348990;28;1413;-63
2022/09/25 00:06:15;;;;;;;;;;;;;;;;;;350085;28;968;-64
2022/09/25 00:06:28;;;;;;;;;;;;;;;;;;350179;28;848;-63
2022/09/25 00:06:38;;;;;;;;;;;;;;;;;;350181;28;828;-64
2022/09/25 00:06:49;;;;;;;;;;;;;;;;;;350124;28;917;-63
2022/09/25 00:06:59;;;;;;;;;;;;;;;;;;350121;28;908;-63
2022/09/25 00:07:09;;;;;;;;;;;;;;;;;;350095;28;1016;-63
2022/09/25 00:07:19;;;;;;;;;;;;;;;;;;350193;28;955;-64
2022/09/25 00:07:29;;;;;;;;;;;;;;;;;;350027;28;932;-63
2022/09/25 00:07:39;;;;;;;;;;;;;;;;;;350088;28;999;-63
2022/09/25 00:07:50;;;;;;;;;;;;;;;;;;350151;28;865;-63
2022/09/25 00:08:01;;;;;;;;;;;;;;;;;;350156;28;986;-64
2022/09/25 00:08:12;;;;;;;;;;;;;;;;;;350119;28;928;-64
2022/09/25 00:08:22;;;;;;;;;;;;;;;;;;350187;28;817;-63
2022/09/25 00:08:33;;;;;;;;;;;;;;;;;;350111;28;915;-63
2022/09/25 00:08:43;;;;;;;;;;;;;;;;;;350130;28;919;-63
2022/09/25 00:08:54;;;;;;;;;;;;;;;;;;350119;28;912;-63
2022/09/25 00:09:04;;;;;;;;;;;;;;;;;;350114;28;975;-64
2022/09/25 00:09:19;;;;;;;;;;;;;;;;;;350133;28;792;-64
2022/09/25 00:09:29;;;;;;;;;;;;;;;;;;350219;28;781;-63
2022/09/25 00:09:39;;;;;;;;;;;;;;;;;;350090;28;975;-63
2022/09/25 00:09:50;;;;;;;;;;;;;;;;;;349982;28;1214;-63
2022/09/25 00:10:00;;;;;;;;;;;;;;;;;;350186;28;828;-63
2022/09/25 00:10:10;;;;;;;;;;;;;;;;;;350131;28;1006;-63
2022/09/25 00:10:21;;;;;;;;;;;;;;;;;;350177;28;833;-64
2022/09/25 00:10:31;;;;;;;;;;;;;;;;;;350123;28;1000;-64
2022/09/25 00:10:43;;;;;;;;;;;;;;;;;;350060;28;964;-64
2022/09/25 00:10:53;;;;;;;;;;;;;;;;;;350137;28;931;-63
2022/09/25 00:11:08;;;;;;;;;;;;;;;;;;350157;28;1006;-64
2022/09/25 00:11:21;;;;;;;;;;;;;;;;;;350172;28;924;-63
2022/09/25 00:11:31;;;;;;;;;;;;;;;;;;350098;28;998;-64
2022/09/25 00:11:41;;;;;;;;;;;;;;;;;;350094;28;888;-63
2022/09/25 00:11:52;;;;;;;;;;;;;;;;;;350180;28;1034;-63
2022/09/25 00:12:02;;;;;;;;;;;;;;;;;;350160;28;940;-64
2022/09/25 00:12:12;;;;;;;;;;;;;;;;;;350155;28;853;-63
2022/09/25 00:12:22;;;;;;;;;;;;;;;;;;350133;28;975;-64
2022/09/25 00:12:33;;;;;;;;;;;;;;;;;;350130;28;1141;-63
2022/09/25 00:12:43;;;;;;;;;;;;;;;;;;350152;28;907;-63
2022/09/25 00:12:54;;;;;;;;;;;;;;;;;;350144;28;908;-64
2022/09/25 00:13:04;;;;;;;;;;;;;;;;;;350166;28;940;-63
2022/09/25 00:13:15;;;;;;;;;;;;;;;;;;350080;28;940;-64
2022/09/25 00:13:25;;;;;;;;;;;;;;;;;;350128;28;904;-63
2022/09/25 00:13:36;;;;;;;;;;;;;;;;;;350122;28;978;-64
2022/09/25 00:13:46;;;;;;;;;;;;;;;;;;350074;28;940;-63
2022/09/25 00:13:57;;;;;;;;;;;;;;;;;;350167;28;801;-64
2022/09/25 00:14:08;;;;;;;;;;;;;;;;;;350091;28;985;-63
2022/09/25 00:14:18;;;;;;;;;;;;;;;;;;350126;28;979;-64
2022/09/25 00:14:28;;;;;;;;;;;;;;;;;;350145;28;915;-64
2022/09/25 00:14:38;;;;;;;;;;;;;;;;;;350083;28;936;-63
2022/09/25 00:14:49;;;;;;;;;;;;;;;;;;350125;28;808;-63
2022/09/25 00:14:59;;;;;;;;;;;;;;;;;;350136;28;940;-64
2022/09/25 00:15:10;;;;;;;;;;;;;;;;;;350140;28;928;-63
2022/09/25 00:15:20;;;;;;;;;;;;;;;;;;350140;28;975;-64
2022/09/25 00:15:30;;;;;;;;;;;;;;;;;;350111;28;793;-64
2022/09/25 00:15:46;;;;;;;;;;;;;;;;;;350129;28;972;-63
2022/09/25 00:15:58;;;;;;;;;;;;;;;;;;350101;28;896;-64
2022/09/25 00:16:10;;;;;;;;;;;;;;;;;;350079;28;1167;-64
2022/09/25 00:16:21;;;;;;;;;;;;;;;;;;350158;28;799;-64
2022/09/25 00:16:31;;;;;;;;;;;;;;;;;;350143;28;982;-63
2022/09/25 00:16:42;;;;;;;;;;;;;;;;;;350096;28;1019;-63
2022/09/25 00:16:52;;;;;;;;;;;;;;;;;;350148;28;841;-63
2022/09/25 00:17:02;;;;;;;;;;;;;;;;;;350151;28;927;-64
2022/09/25 00:17:12;;;;;;;;;;;;;;;;;;350125;28;1018;-63
2022/09/25 00:17:22;;;;;;;;;;;;;;;;;;350035;28;1910;-64
2022/09/25 00:17:33;;;;;;;;;;;;;;;;;;350138;28;998;-64
2022/09/25 00:17:43;;;;;;;;;;;;;;;;;;350064;28;1415;-63
2022/09/25 00:17:53;;;;;;;;;;;;;;;;;;350155;28;994;-63
2022/09/25 00:18:03;;;;;;;;;;;;;;;;;;349996;28;971;-64
2022/09/25 00:18:14;;;;;;;;;;;;;;;;;;350109;28;940;-64
2022/09/25 00:19:52;;;;;;;;;;;;;;;;;;351378;28;967;-64
2022/09/25 00:20:02;;;;;;;;;;;;;;;;;;351458;28;912;-63
2022/09/25 00:20:14;;;;;;;;;;;;;;;;;;351528;28;999;-64
2022/09/25 00:20:24;;;;;;;;;;;;;;;;;;351553;28;943;-63
2022/09/25 00:20:35;;;;;;;;;;;;;;;;;;351529;28;990;-64
2022/09/25 00:20:46;;;;;;;;;;;;;;;;;;349282;28;1437;-64
2022/09/25 00:21:00;;;;;;;;;;;;;;;;;;350132;28;928;-63
2022/09/25 00:21:11;;;;;;;;;;;;;;;;;;348759;28;769;-64
2022/09/25 00:21:21;;;;;;;;;;;;;;;;;;348723;28;948;-64
2022/09/25 00:21:32;;;;;;;;;;;;;;;;;;348726;28;955;-63
2022/09/25 00:21:43;;;;;;;;;;;;;;;;;;348653;28;911;-64
2022/09/25 00:21:53;;;;;;;;;;;;;;;;;;348703;28;1007;-63
2022/09/25 00:22:03;;;;;;;;;;;;;;;;;;348741;28;928;-63
2022/09/25 00:22:14;;;;;;;;;;;;;;;;;;348688;28;1015;-63
2022/09/25 00:22:25;;;;;;;;;;;;;;;;;;348801;28;1712;-63
2022/09/25 00:22:35;;;;;;;;;;;;;;;;;;348704;28;924;-64
2022/09/25 00:22:46;;;;;;;;;;;;;;;;;;348707;28;936;-64
2022/09/25 00:22:58;;;;;;;;;;;;;;;;;;348746;28;814;-63
2022/09/25 00:23:08;;;;;;;;;;;;;;;;;;348716;28;983;-63
2022/09/25 00:23:19;;;;;;;;;;;;;;;;;;348746;28;944;-63
2022/09/25 00:23:29;;;;;;;;;;;;;;;;;;348690;28;1032;-63
2022/09/25 00:23:40;;;;;;;;;;;;;;;;;;348771;28;821;-64
2022/09/25 00:23:50;;;;;;;;;;;;;;;;;;348749;28;801;-64
2022/09/25 00:24:02;;;;;;;;;;;;;;;;;;348781;28;805;-63
2022/09/25 00:24:12;;;;;;;;;;;;;;;;;;348642;28;813;-64
2022/09/25 00:24:22;;;;;;;;;;;;;;;;;;348741;28;916;-64
2022/09/25 00:24:33;;;;;;;;;;;;;;;;;;348735;28;817;-63
2022/09/25 00:24:43;;;;;;;;;;;;;;;;;;348759;28;908;-63
2022/09/25 00:24:53;;;;;;;;;;;;;;;;;;348631;28;1014;-63
2022/09/25 00:25:04;;;;;;;;;;;;;;;;;;348730;28;928;-64
2022/09/25 00:25:14;;;;;;;;;;;;;;;;;;348782;28;1024;-64
2022/09/25 00:25:26;;;;;;;;;;;;;;;;;;348750;28;936;-64
2022/09/25 00:25:36;;;;;;;;;;;;;;;;;;348721;28;991;-63
2022/09/25 00:25:52;;;;;;;;;;;;;;;;;;348712;28;940;-64
2022/09/25 00:26:04;;;;;;;;;;;;;;;;;;348743;28;928;-63
2022/09/25 00:26:15;;;;;;;;;;;;;;;;;;348635;28;991;-63
2022/09/25 00:26:27;;;;;;;;;;;;;;;;;;348737;28;963;-63
2022/09/25 00:26:39;;;;;;;;;;;;;;;;;;348739;28;967;-63
2022/09/25 00:26:49;;;;;;;;;;;;;;;;;;348733;28;857;-64
2022/09/25 00:27:00;;;;;;;;;;;;;;;;;;348674;28;990;-64
2022/09/25 00:27:10;;;;;;;;;;;;;;;;;;348836;28;774;-63
2022/09/25 00:27:20;;;;;;;;;;;;;;;;;;348733;28;960;-64
2022/09/25 00:27:31;;;;;;;;;;;;;;;;;;348749;28;774;-64
2022/09/25 00:27:42;;;;;;;;;;;;;;;;;;348482;28;1398;-63
2022/09/25 00:27:52;;;;;;;;;;;;;;;;;;348714;28;964;-63
2022/09/25 00:28:02;;;;;;;;;;;;;;;;;;348772;28;1015;-63
2022/09/25 00:28:13;;;;;;;;;;;;;;;;;;348740;28;868;-64
2022/09/25 00:28:24;;;;;;;;;;;;;;;;;;348706;28;1001;-63
2022/09/25 00:28:35;;;;;;;;;;;;;;;;;;348707;28;932;-63
2022/09/25 00:28:45;;;;;;;;;;;;;;;;;;348785;28;785;-63
2022/09/25 00:28:56;;;;;;;;;;;;;;;;;;348729;28;904;-63
2022/09/25 00:29:07;;;;;;;;;;;;;;;;;;348756;28;964;-64
2022/09/25 00:29:19;;;;;;;;;;;;;;;;;;348676;28;1000;-63
2022/09/25 00:29:29;;;;;;;;;;;;;;;;;;348726;28;951;-63
2022/09/25 00:29:40;;;;;;;;;;;;;;;;;;348716;28;972;-63
2022/09/25 00:29:51;;;;;;;;;;;;;;;;;;348795;28;976;-63
2022/09/25 00:30:03;;;;;;;;;;;;;;;;;;348667;28;1182;-63
2022/09/25 00:30:14;;;;;;;;;;;;;;;;;;348715;28;888;-63
2022/09/25 00:30:24;;;;;;;;;;;;;;;;;;348743;28;892;-63
2022/09/25 00:30:38;;;;;;;;;;;;;;;;;;348740;28;1003;-63
2022/09/25 00:30:48;;;;;;;;;;;;;;;;;;348748;28;991;-64
2022/09/25 00:30:59;;;;;;;;;;;;;;;;;;348668;28;832;-63
2022/09/25 00:31:09;;;;;;;;;;;;;;;;;;348698;28;973;-64
2022/09/25 00:31:23;;;;;;;;;;;;;;;;;;348710;28;1015;-63
2022/09/25 00:31:33;;;;;;;;;;;;;;;;;;348734;28;1015;-63
2022/09/25 00:31:44;;;;;;;;;;;;;;;;;;348769;28;927;-64
2022/09/25 00:31:54;;;;;;;;;;;;;;;;;;348551;28;1268;-64
2022/09/25 00:32:06;;;;;;;;;;;;;;;;;;348661;28;1003;-64
2022/09/25 00:32:16;;;;;;;;;;;;;;;;;;348730;28;853;-64
2022/09/25 00:32:26;;;;;;;;;;;;;;;;;;348723;28;1094;-64
2022/09/25 00:32:36;;;;;;;;;;;;;;;;;;348689;28;956;-64
2022/09/25 00:32:47;;;;;;;;;;;;;;;;;;348752;28;1003;-64
2022/09/25 00:32:57;;;;;;;;;;;;;;;;;;348702;28;980;-64
2022/09/25 00:33:07;;;;;;;;;;;;;;;;;;348723;28;877;-64
2022/09/25 00:33:17;;;;;;;;;;;;;;;;;;348749;28;975;-64
2022/09/25 00:33:27;;;;;;;;;;;;;;;;;;348720;28;908;-64
2022/09/25 00:33:38;;;;;;;;;;;;;;;;;;348757;28;837;-64
2022/09/25 00:33:48;;;;;;;;;;;;;;;;;;348730;28;916;-64
2022/09/25 00:33:59;;;;;;;;;;;;;;;;;;348735;28;924;-64
2022/09/25 00:34:10;;;;;;;;;;;;;;;;;;348455;28;1539;-64
2022/09/25 00:34:20;;;;;;;;;;;;;;;;;;348710;28;1495;-64
2022/09/25 00:34:31;;;;;;;;;;;;;;;;;;350056;28;948;-64
2022/09/25 00:34:41;;;;;;;;;;;;;;;;;;350098;28;773;-64
2022/09/25 00:34:51;;;;;;;;;;;;;;;;;;350092;28;924;-64
2022/09/25 00:35:01;;;;;;;;;;;;;;;;;;350103;28;952;-64
2022/09/25 00:35:11;;;;;;;;;;;;;;;;;;350063;28;1050;-64
2022/09/25 00:35:22;;;;;;;;;;;;;;;;;;350085;28;975;-64
2022/09/25 00:35:32;;;;;;;;;;;;;;;;;;350110;28;967;-64
2022/09/25 00:35:42;;;;;;;;;;;;;;;;;;350116;28;987;-64
2022/09/25 00:35:52;;;;;;;;;;;;;;;;;;350057;28;1157;-64
2022/09/25 00:36:05;;;;;;;;;;;;;;;;;;350082;28;924;-64
2022/09/25 00:36:15;;;;;;;;;;;;;;;;;;350095;28;936;-64
2022/09/25 00:36:26;;;;;;;;;;;;;;;;;;350127;28;769;-64
2022/09/25 00:36:36;;;;;;;;;;;;;;;;;;350087;28;920;-64
2022/09/25 00:36:46;;;;;;;;;;;;;;;;;;350011;28;948;-64
2022/09/25 00:36:57;;;;;;;;;;;;;;;;;;350092;28;907;-64
2022/09/25 00:37:07;;;;;;;;;;;;;;;;;;349243;28;1884;-64
2022/09/25 00:37:17;;;;;;;;;;;;;;;;;;349717;28;1298;-64
2022/09/25 00:37:27;;;;;;;;;;;;;;;;;;349993;28;1910;-64
2022/09/25 00:37:38;;;;;;;;;;;;;;;;;;350126;28;928;-64
2022/09/25 00:37:48;;;;;;;;;;;;;;;;;;350121;28;924;-64
2022/09/25 00:37:58;;;;;;;;;;;;;;;;;;350017;28;1066;-64
2022/09/25 00:38:08;;;;;;;;;;;;;;;;;;349249;28;1970;-64
2022/09/25 00:38:18;;;;;;;;;;;;;;;;;;351452;28;836;-64
2022/09/25 00:38:30;;;;;;;;;;;;;;;;;;351508;28;983;-64
2022/09/25 00:38:40;;;;;;;;;;;;;;;;;;351476;28;979;-64
2022/09/25 00:38:51;;;;;;;;;;;;;;;;;;351422;28;999;-64
2022/09/25 00:39:02;;;;;;;;;;;;;;;;;;351503;28;920;-64
2022/09/25 00:39:12;;;;;;;;;;;;;;;;;;351544;28;987;-64
2022/09/25 00:39:23;;;;;;;;;;;;;;;;;;351486;28;808;-64
2022/09/25 00:39:33;;;;;;;;;;;;;;;;;;351534;28;922;-64
2022/09/25 00:39:43;;;;;;;;;;;;;;;;;;351482;28;928;-64
2022/09/25 00:39:53;;;;;;;;;;;;;;;;;;351483;28;959;-64
2022/09/25 00:40:04;;;;;;;;;;;;;;;;;;351469;28;962;-64
2022/09/25 00:40:14;;;;;;;;;;;;;;;;;;351465;28;896;-64
2022/09/25 00:40:25;;;;;;;;;;;;;;;;;;351526;28;777;-63
2022/09/25 00:40:35;;;;;;;;;;;;;;;;;;351559;28;880;-64
2022/09/25 00:40:45;;;;;;;;;;;;;;;;;;351436;28;975;-64
2022/09/25 00:40:55;;;;;;;;;;;;;;;;;;351416;28;1083;-64
2022/09/25 00:41:06;;;;;;;;;;;;;;;;;;351527;28;785;-64
2022/09/25 00:41:17;;;;;;;;;;;;;;;;;;351496;28;903;-64
2022/09/25 00:41:30;;;;;;;;;;;;;;;;;;351451;28;967;-64
2022/09/25 00:41:41;;;;;;;;;;;;;;;;;;351462;28;947;-64
2022/09/25 00:41:51;;;;;;;;;;;;;;;;;;351505;28;848;-64
2022/09/25 00:42:02;;;;;;;;;;;;;;;;;;351480;28;1007;-64
2022/09/25 00:42:12;;;;;;;;;;;;;;;;;;351454;28;1284;-64
2022/09/25 00:42:22;;;;;;;;;;;;;;;;;;351509;28;888;-64
2022/09/25 00:42:33;;;;;;;;;;;;;;;;;;351508;28;943;-64
2022/09/25 00:42:43;;;;;;;;;;;;;;;;;;351488;28;920;-64
2022/09/25 00:42:53;;;;;;;;;;;;;;;;;;351441;28;912;-64
2022/09/25 00:43:08;;;;;;;;;;;;;;;;;;351455;28;900;-64
2022/09/25 00:43:36;;;;;;;;;;;;;;;;;;351460;28;1027;-64
2022/09/25 00:43:49;;;;;;;;;;;;;;;;;;351455;28;919;-64
2022/09/25 00:44:01;;;;;;;;;;;;;;;;;;351477;28;884;-64
2022/09/25 00:44:30;;;;;;;;;;;;;;;;;;351472;28;991;-63
2022/09/25 00:44:56;;;;;;;;;;;;;;;;;;351422;28;960;-64
2022/09/25 00:45:18;;;;;;;;;;;;;;;;;;351399;28;1263;-64
2022/09/25 00:45:28;;;;;;;;;;;;;;;;;;351464;28;988;-64
2022/09/25 00:45:38;;;;;;;;;;;;;;;;;;351511;28;1173;-64
2022/09/25 00:45:48;;;;;;;;;;;;;;;;;;351509;28;999;-64
2022/09/25 00:46:00;;;;;;;;;;;;;;;;;;351478;28;911;-64
2022/09/25 00:46:30;;;;;;;;;;;;;;;;;;351463;28;978;-64
2022/09/25 00:46:42;;;;;;;;;;;;;;;;;;351186;28;1125;-64
2022/09/25 00:46:52;;;;;;;;;;;;;;;;;;351455;28;891;-64
2022/09/25 00:47:02;;;;;;;;;;;;;;;;;;351497;28;908;-64
2022/09/25 00:47:18;;;;;;;;;;;;;;;;;;351458;28;892;-64
2022/09/25 00:47:40;;;;;;;;;;;;;;;;;;351510;28;903;-64
2022/09/25 00:48:01;;;;;;;;;;;;;;;;;;351519;28;774;-64
2022/09/25 00:48:14;;;;;;;;;;;;;;;;;;351488;28;984;-64
2022/09/25 00:48:24;;;;;;;;;;;;;;;;;;351441;28;943;-64
2022/09/25 00:48:34;;;;;;;;;;;;;;;;;;351483;28;952;-64
2022/09/25 00:48:58;;;;;;;;;;;;;;;;;;351488;28;939;-64
2022/09/25 00:49:08;;;;;;;;;;;;;;;;;;349764;28;1652;-64
2022/09/25 00:49:21;;;;;;;;;;;;;;;;;;349979;28;1710;-64
2022/09/25 00:49:32;;;;;;;;;;;;;;;;;;350097;28;1011;-64
2022/09/25 00:49:42;;;;;;;;;;;;;;;;;;350044;28;955;-64
2022/09/25 00:49:54;;;;;;;;;;;;;;;;;;350081;28;880;-64
2022/09/25 00:50:11;;;;;;;;;;;;;;;;;;350095;28;964;-64
2022/09/25 00:50:27;;;;;;;;;;;;;;;;;;350033;28;947;-64
2022/09/25 00:50:40;;;;;;;;;;;;;;;;;;350070;28;920;-64
2022/09/25 00:50:52;;;;;;;;;;;;;;;;;;350114;28;758;-64
2022/09/25 00:51:03;;;;;;;;;;;;;;;;;;350028;28;1053;-64
2022/09/25 00:51:14;;;;;;;;;;;;;;;;;;350071;28;919;-64
2022/09/25 00:51:28;;;;;;;;;;;;;;;;;;350020;28;963;-64
2022/09/25 00:51:39;;;;;;;;;;;;;;;;;;350081;28;975;-64
2022/09/25 00:51:56;;;;;;;;;;;;;;;;;;350094;28;940;-64
2022/09/25 00:52:08;;;;;;;;;;;;;;;;;;350117;28;967;-64
2022/09/25 00:52:19;;;;;;;;;;;;;;;;;;350092;28;927;-64
2022/09/25 00:52:30;;;;;;;;;;;;;;;;;;350036;28;991;-64
2022/09/25 00:52:40;;;;;;;;;;;;;;;;;;350090;28;952;-64
2022/09/25 00:52:53;;;;;;;;;;;;;;;;;;350125;28;837;-64
2022/09/25 00:53:15;;;;;;;;;;;;;;;;;;350057;28;939;-63
2022/09/25 00:53:28;;;;;;;;;;;;;;;;;;349952;28;1036;-63
2022/09/25 00:53:39;;;;;;;;;;;;;;;;;;350074;28;987;-64
2022/09/25 00:53:50;;;;;;;;;;;;;;;;;;350007;28;1058;-64
2022/09/25 00:54:03;;;;;;;;;;;;;;;;;;350088;28;1042;-64
2022/09/25 00:54:16;;;;;;;;;;;;;;;;;;350124;28;995;-64
2022/09/25 00:54:29;;;;;;;;;;;;;;;;;;350068;28;987;-64
2022/09/25 00:54:45;;;;;;;;;;;;;;;;;;350035;28;924;-64
2022/09/25 00:54:58;;;;;;;;;;;;;;;;;;349253;28;1916;-64
2022/09/25 00:55:08;;;;;;;;;;;;;;;;;;348683;28;920;-64
2022/09/25 00:55:20;;;;;;;;;;;;;;;;;;348735;28;1666;-64
2022/09/25 00:55:32;;;;;;;;;;;;;;;;;;348627;28;821;-64
2022/09/25 00:55:43;;;;;;;;;;;;;;;;;;348724;28;912;-64
2022/09/25 00:55:54;;;;;;;;;;;;;;;;;;348724;28;805;-64
2022/09/25 00:56:06;;;;;;;;;;;;;;;;;;348471;28;1386;-64
2022/09/25 00:56:16;;;;;;;;;;;;;;;;;;350075;28;837;-64
2022/09/25 00:56:33;;;;;;;;;;;;;;;;;;350081;28;1007;-64
2022/09/25 00:56:45;;;;;;;;;;;;;;;;;;350116;28;928;-64
2022/09/25 00:56:56;;;;;;;;;;;;;;;;;;350059;28;942;-64
2022/09/25 00:57:08;;;;;;;;;;;;;;;;;;350014;28;1159;-64
2022/09/25 00:57:20;;;;;;;;;;;;;;;;;;350050;28;907;-64
2022/09/25 00:57:32;;;;;;;;;;;;;;;;;;349904;28;1902;-64
2022/09/25 00:57:45;;;;;;;;;;;;;;;;;;350061;28;935;-64
2022/09/25 00:57:56;;;;;;;;;;;;;;;;;;349998;28;1325;-64
2022/09/25 00:58:07;;;;;;;;;;;;;;;;;;350092;28;956;-64
2022/09/25 00:58:20;;;;;;;;;;;;;;;;;;350124;28;944;-64
2022/09/25 00:58:32;;;;;;;;;;;;;;;;;;350041;28;911;-64
2022/09/25 00:58:42;;;;;;;;;;;;;;;;;;350008;28;931;-64
2022/09/25 00:58:53;;;;;;;;;;;;;;;;;;350101;28;915;-64
2022/09/25 00:59:04;;;;;;;;;;;;;;;;;;350038;28;1170;-64
2022/09/25 00:59:20;;;;;;;;;;;;;;;;;;350065;28;951;-64
2022/09/25 00:59:33;;;;;;;;;;;;;;;;;;350065;28;939;-64
2022/09/25 00:59:45;;;;;;;;;;;;;;;;;;350015;28;777;-64
2022/09/25 00:59:57;;;;;;;;;;;;;;;;;;350090;28;851;-64
2022/09/25 01:00:10;;;;;;;;;;;;;;;;;;350035;28;967;-64
2022/09/25 01:00:20;;;;;;;;;;;;;;;;;;350063;28;936;-64
2022/09/25 01:00:31;;;;;;;;;;;;;;;;;;350082;28;785;-64
2022/09/25 01:00:42;;;;;;;;;;;;;;;;;;350083;28;991;-64
2022/09/25 01:00:53;;;;;;;;;;;;;;;;;;350057;28;991;-64
2022/09/25 01:01:03;;;;;;;;;;;;;;;;;;350077;28;924;-64
2022/09/25 01:01:14;;;;;;;;;;;;;;;;;;350104;28;852;-64
2022/09/25 01:01:24;;;;;;;;;;;;;;;;;;350042;28;1046;-64
2022/09/25 01:01:34;;;;;;;;;;;;;;;;;;350004;28;972;-64
2022/09/25 01:01:45;;;;;;;;;;;;;;;;;;350016;28;928;-64
2022/09/25 01:01:56;;;;;;;;;;;;;;;;;;350084;28;1033;-64
2022/09/25 01:02:08;;;;;;;;;;;;;;;;;;350036;28;1010;-64
2022/09/25 01:02:27;;;;;;;;;;;;;;;;;;349073;28;1453;-64
2022/09/25 01:02:39;;;;;;;;;;;;;;;;;;348485;28;916;-64
2022/09/25 01:02:54;;;;;;;;;;;;;;;;;;348524;28;990;-64
2022/09/25 01:03:06;;;;;;;;;;;;;;;;;;348490;28;893;-64
2022/09/25 01:03:16;;;;;;;;;;;;;;;;;;348686;28;920;-64
2022/09/25 01:03:27;;;;;;;;;;;;;;;;;;348739;28;947;-64
2022/09/25 01:03:39;;;;;;;;;;;;;;;;;;348667;28;940;-64
2022/09/25 01:03:49;;;;;;;;;;;;;;;;;;348654;28;797;-63
2022/09/25 01:03:59;;;;;;;;;;;;;;;;;;348678;28;920;-64
2022/09/25 01:04:11;;;;;;;;;;;;;;;;;;348661;28;1043;-64
2022/09/25 01:04:22;;;;;;;;;;;;;;;;;;348689;28;959;-64
2022/09/25 01:04:33;;;;;;;;;;;;;;;;;;348608;28;983;-64
2022/09/25 01:04:45;;;;;;;;;;;;;;;;;;348636;28;1050;-64
2022/09/25 01:04:56;;;;;;;;;;;;;;;;;;348707;28;920;-64
2022/09/25 01:05:08;;;;;;;;;;;;;;;;;;348663;28;952;-64
2022/09/25 01:05:23;;;;;;;;;;;;;;;;;;348586;28;975;-63
2022/09/25 01:05:36;;;;;;;;;;;;;;;;;;348691;28;935;-64
2022/09/25 01:05:46;;;;;;;;;;;;;;;;;;348664;28;887;-64
2022/09/25 01:05:59;;;;;;;;;;;;;;;;;;348658;28;896;-64
2022/09/25 01:06:11;;;;;;;;;;;;;;;;;;348607;28;923;-64
2022/09/25 01:06:24;;;;;;;;;;;;;;;;;;348659;28;955;-64
2022/09/25 01:06:34;;;;;;;;;;;;;;;;;;348655;28;975;-64
2022/09/25 01:06:44;;;;;;;;;;;;;;;;;;348655;28;998;-64
2022/09/25 01:06:55;;;;;;;;;;;;;;;;;;348632;28;995;-64
2022/09/25 01:07:07;;;;;;;;;;;;;;;;;;348680;28;912;-64
2022/09/25 01:07:17;;;;;;;;;;;;;;;;;;348716;28;872;-64
2022/09/25 01:07:29;;;;;;;;;;;;;;;;;;348708;28;1010;-63
2022/09/25 01:07:41;;;;;;;;;;;;;;;;;;348621;28;1014;-64
2022/09/25 01:07:54;;;;;;;;;;;;;;;;;;348726;28;785;-64
2022/09/25 01:08:06;;;;;;;;;;;;;;;;;;348688;28;963;-64
2022/09/25 01:08:19;;;;;;;;;;;;;;;;;;348695;28;793;-64
2022/09/25 01:08:31;;;;;;;;;;;;;;;;;;348640;28;983;-64
2022/09/25 01:08:42;;;;;;;;;;;;;;;;;;348690;28;1003;-64
2022/09/25 01:08:53;;;;;;;;;;;;;;;;;;348716;28;974;-64
2022/09/25 01:09:03;;;;;;;;;;;;;;;;;;348690;28;964;-64
2022/09/25 01:09:13;;;;;;;;;;;;;;;;;;348647;28;1010;-64
2022/09/25 01:09:24;;;;;;;;;;;;;;;;;;348638;28;1014;-64
2022/09/25 01:09:35;;;;;;;;;;;;;;;;;;348637;28;1070;-64
2022/09/25 01:09:45;;;;;;;;;;;;;;;;;;348668;28;924;-63
2022/09/25 01:09:58;;;;;;;;;;;;;;;;;;348641;28;932;-64
2022/09/25 01:10:09;;;;;;;;;;;;;;;;;;348629;28;940;-64
2022/09/25 01:10:20;;;;;;;;;;;;;;;;;;348700;28;948;-64
2022/09/25 01:10:30;;;;;;;;;;;;;;;;;;348712;28;920;-64
2022/09/25 01:10:41;;;;;;;;;;;;;;;;;;348574;28;777;-64
2022/09/25 01:10:51;;;;;;;;;;;;;;;;;;348675;28;916;-64
2022/09/25 01:11:02;;;;;;;;;;;;;;;;;;348687;28;978;-64
2022/09/25 01:11:13;;;;;;;;;;;;;;;;;;348732;28;990;-64
2022/09/25 01:11:23;;;;;;;;;;;;;;;;;;348636;28;1010;-64
2022/09/25 01:11:33;;;;;;;;;;;;;;;;;;348668;28;935;-64
2022/09/25 01:11:44;;;;;;;;;;;;;;;;;;348686;28;968;-64
2022/09/25 01:11:54;;;;;;;;;;;;;;;;;;348679;28;936;-64
2022/09/25 01:12:04;;;;;;;;;;;;;;;;;;348647;28;928;-64
2022/09/25 01:12:17;;;;;;;;;;;;;;;;;;348573;28;829;-64
2022/09/25 01:12:27;;;;;;;;;;;;;;;;;;348580;28;513;-64
2022/09/25 01:12:42;;;;;;;;;;;;;;;;;;348253;28;1987;-64
2022/09/25 01:12:53;;;;;;;;;;;;;;;;;;351032;28;971;-64
2022/09/25 01:13:03;;;;;;;;;;;;;;;;;;351426;28;931;-64
2022/09/25 01:13:15;;;;;;;;;;;;;;;;;;351484;28;1042;-64
2022/09/25 01:13:25;;;;;;;;;;;;;;;;;;351492;28;809;-64
2022/09/25 01:13:37;;;;;;;;;;;;;;;;;;351436;28;970;-64
2022/09/25 01:13:47;;;;;;;;;;;;;;;;;;351436;28;943;-64
2022/09/25 01:13:59;;;;;;;;;;;;;;;;;;351454;28;931;-63
2022/09/25 01:14:10;;;;;;;;;;;;;;;;;;351438;28;1006;-64
2022/09/25 01:14:20;;;;;;;;;;;;;;;;;;351438;28;947;-63
2022/09/25 01:14:32;;;;;;;;;;;;;;;;;;351371;28;1120;-64
2022/09/25 01:14:43;;;;;;;;;;;;;;;;;;351423;28;856;-64
2022/09/25 01:14:54;;;;;;;;;;;;;;;;;;351432;28;868;-64
2022/09/25 01:15:06;;;;;;;;;;;;;;;;;;351451;28;911;-64
2022/09/25 01:15:18;;;;;;;;;;;;;;;;;;351428;28;1121;-64
2022/09/25 01:15:49;;;;;;;;;;;;;;;;;;351405;28;969;-64
2022/09/25 01:16:02;;;;;;;;;;;;;;;;;;351008;28;1205;-64
2022/09/25 01:16:16;;;;;;;;;;;;;;;;;;351414;28;1022;-64
2022/09/25 01:16:53;;;;;;;;;;;;;;;;;;351412;28;935;-64
2022/09/25 01:17:09;;;;;;;;;;;;;;;;;;349651;28;1440;-64
2022/09/25 01:17:42;;;;;;;;;;;;;;;;;;348483;28;1011;-64
2022/09/25 01:18:01;;;;;;;;;;;;;;;;;;348477;28;975;-64
2022/09/25 01:18:27;;;;;;;;;;;;;;;;;;348671;28;858;-64
2022/09/25 01:18:43;;;;;;;;;;;;;;;;;;348670;28;1097;-64
2022/09/25 01:19:10;;;;;;;;;;;;;;;;;;348639;28;869;-64
2022/09/25 01:19:32;;;;;;;;;;;;;;;;;;348662;28;940;-64
2022/09/25 01:19:42;;;;;;;;;;;;;;;;;;348594;28;1104;-64
2022/09/25 01:20:11;;;;;;;;;;;;;;;;;;348692;28;903;-64
2022/09/25 01:20:35;;;;;;;;;;;;;;;;;;348825;28;1366;-64
2022/09/25 01:21:03;;;;;;;;;;;;;;;;;;350049;28;955;-64
2022/09/25 01:21:14;;;;;;;;;;;;;;;;;;348681;28;927;-63
2022/09/25 01:21:24;;;;;;;;;;;;;;;;;;348569;28;1017;-64
2022/09/25 01:21:46;;;;;;;;;;;;;;;;;;348672;28;982;-64
2022/09/25 01:22:09;;;;;;;;;;;;;;;;;;348709;28;844;-64
2022/09/25 01:22:27;;;;;;;;;;;;;;;;;;348651;28;1013;-64
2022/09/25 01:22:52;;;;;;;;;;;;;;;;;;348639;28;844;-64
2022/09/25 01:23:11;;;;;;;;;;;;;;;;;;348612;28;867;-64
2022/09/25 01:23:40;;;;;;;;;;;;;;;;;;348679;28;853;-63
2022/09/25 01:23:58;;;;;;;;;;;;;;;;;;348618;28;904;-64
2022/09/25 01:24:08;;;;;;;;;;;;;;;;;;348603;28;1007;-64
2022/09/25 01:24:48;;;;;;;;;;;;;;;;;;348628;28;1023;-64
2022/09/25 01:25:04;;;;;;;;;;;;;;;;;;348520;28;845;-64
2022/09/25 01:25:21;;;;;;;;;;;;;;;;;;348428;28;928;-64
2022/09/25 01:25:59;;;;;;;;;;;;;;;;;;348517;28;1303;-64
2022/09/25 01:26:33;;;;;;;;;;;;;;;;;;348650;28;967;-64
2022/09/25 01:27:02;;;;;;;;;;;;;;;;;;348630;28;963;-64
2022/09/25 01:27:35;;;;;;;;;;;;;;;;;;348580;28;784;-64
2022/09/25 01:28:04;;;;;;;;;;;;;;;;;;348470;28;940;-64
2022/09/25 01:28:17;;;;;;;;;;;;;;;;;;348696;28;912;-64
2022/09/25 01:28:28;;;;;;;;;;;;;;;;;;348663;28;932;-64
2022/09/25 01:28:58;;;;;;;;;;;;;;;;;;348621;28;781;-64
2022/09/25 01:29:17;;;;;;;;;;;;;;;;;;348640;28;963;-64
2022/09/25 01:29:39;;;;;;;;;;;;;;;;;;348688;28;912;-64
2022/09/25 01:29:54;;;;;;;;;;;;;;;;;;348625;28;979;-64
2022/09/25 01:30:06;;;;;;;;;;;;;;;;;;348657;28;981;-64
2022/09/25 01:30:17;;;;;;;;;;;;;;;;;;348171;28;1947;-64